Wetterdaten für den Flughafen Lübeck Blankensee


ADDS - METARS form results Aviation Digital Data Service (ADDS) Output produced by METARs form (0752 UTC 19 July 2019)
found at http://www.aviationweather.gov/metar/data/
 
EDHL 190720Z 26006KT 9999 FEW029 BKN090 20/15 Q1012
TAF EDHL 190555Z 1906/1915 26006KT 9999 SCT020 PROB30 TEMPO 1907/1911 BKN013

Nord: Hamburg, Lübeck
Ost: Schwerin, Rostock
Süd: Hannover
West: Bremen, Nordhloz

 

Copyright © 2016 Flugschule Hohensee